This is the latest recevied weather packets stored in our database for station/object WX4TAZ. If no packets are shown the sender has not sent any weather packets the latest 10 day(s).
| Time | Temp. | Humidity | Pressure | Rain* | Wind** | Luminosity | Snow |
|---|---|---|---|---|---|---|---|
| 1777954863 | 11.67° C | 36% | 1007.9 hPa | 0 mm | - | - | - |
| 1777952463 | 12.22° C | 32% | 1007.4 hPa | 0 mm | - | - | - |
| 1777947664 | 13.33° C | 31% | 1006.5 hPa | 0 mm | - | - | - |
| 1777944963 | 14.44° C | 29% | 1006.1 hPa | 0 mm | - | - | - |
| 1777941963 | 17.22° C | 24% | 1004.9 hPa | 0 mm | - | - | - |
| 1777934463 | 22.22° C | 17% | 1002.7 hPa | 0 mm | - | - | - |
| 1777933263 | 22.78° C | 16% | 1002.5 hPa | 0 mm | - | - | - |
| 1777932963 | 23.33° C | 16% | 1002.3 hPa | 0 mm | - | - | - |
| 1777930863 | 24.44° C | 17% | 1002 hPa | 0 mm | - | - | - |
| 1777926063 | 25° C | 19% | 1001.4 hPa | 0 mm | - | - | - |
| 1777920963 | 26.11° C | 18% | 1000.8 hPa | 0 mm | - | - | - |
| 1777917664 | 26.11° C | 18% | 1000.8 hPa | 0 mm | - | - | - |
| 1777910763 | 22.78° C | 26% | 1001.1 hPa | 0 mm | - | - | - |
| 1777902963 | 15.56° C | 43% | 1001.5 hPa | 0 mm | - | - | - |
| 1777902664 | 15.56° C | 43% | 1001.5 hPa | 0 mm | - | - | - |
| 1777899663 | 13.33° C | 52% | 1001.4 hPa | 0 mm | - | - | - |
| 1777896962 | 11.11° C | 49% | 1001.2 hPa | 0 mm | - | - | - |
| 1777892763 | 10.56° C | 49% | 1001.3 hPa | 0 mm | - | - | - |
| 1777891563 | 10.56° C | 51% | 1001.4 hPa | 0 mm | - | - | - |
| 1777869663 | 17.78° C | 28% | 1005.6 hPa | 0 mm | - | - | - |
| 1777866963 | 17.22° C | 30% | 1006.2 hPa | 0 mm | - | - | - |
| 1777866664 | 17.22° C | 30% | 1006.3 hPa | 0 mm | - | - | - |
| 1777856463 | 22.22° C | 19% | 1007 hPa | 0 mm | - | - | - |
| 1777845664 | 23.89° C | 18% | 1007.8 hPa | 0 mm | - | - | - |
| 1777842064 | 23.33° C | 16% | 1008.6 hPa | 0 mm | - | - | - |
* Rain latest hour (hover to see other rain measurements)
** Current wind speed in m/s (hover to see current wind gust speed)